San Juan Enterprise — WDD9563 — position and weather

sailwx.info

Track history (hours):
 
Tides and Currents Weather Stations Pressure Air Temp Water Temp Dewpoint Dewpoint Depression Visibility Wind Speed Wind Dir Waves Ship Positions

San Juan Enterprise

Owner: SAN JUAN MARINE FREIGHT CO LLC, ANACORTES, WA. More information available from US FCC via Universal Licensing System and Coast Guard Vessel Documentation Center.

Last reported at 2017-Mar-22 20:30 UTC. Time now 2017-Mar-23 04:16 UTC.
Position N 48°31' W 122°36'.

Length 30 m.

MMSI: 367313160.

Date/timePositionNaut miles runAvg speedWind from/ knotsBaromVisibWave heightAir tempDewpointWater temp
2017-Mar-22 20:30N 48°31' W 122°36'7 7.1
2017-Mar-22 19:33N 48°37' W 122°43'4 4.3
2017-Mar-22 18:33N 48°36' W 122°49'0 0.4
2017-Mar-22 17:33N 48°36' W 122°49'2 1.9
2017-Mar-22 16:33N 48°36' W 122°46'7 6.7
2017-Mar-22 15:33N 48°31' W 122°38'2 0.1
2017-Mar-21 17:33N 48°33' W 122°40'3 2.8
2017-Mar-21 16:33N 48°31' W 122°36'0 0.0
2017-Mar-21 15:31N 48°31' W 122°36'0 0.0
2017-Mar-21 14:31N 48°31' W 122°36'0 0.0
2017-Mar-21 13:31N 48°31' W 122°36'0 0.0
2017-Mar-21 12:31N 48°31' W 122°36'0 0.0
2017-Mar-21 11:31N 48°31' W 122°36'0 0.0
2017-Mar-21 10:31N 48°31' W 122°36'0 0.0
2017-Mar-21 09:31N 48°31' W 122°36'0 0.0
2017-Mar-21 08:31N 48°31' W 122°36'0 0.0
2017-Mar-21 07:31N 48°31' W 122°36'0 0.0
2017-Mar-21 06:31N 48°31' W 122°36'0 0.0
2017-Mar-21 05:25N 48°31' W 122°36'0 0.0
2017-Mar-21 04:31N 48°31' W 122°36'0 0.0
2017-Mar-21 03:25N 48°31' W 122°36'0 0.0
2017-Mar-21 02:31N 48°31' W 122°36'0 0.0
2017-Mar-21 01:25N 48°31' W 122°36'0 0.4
2017-Mar-21 00:33N 48°31' W 122°37'9 8.9
2017-Mar-20 23:33N 48°36' W 122°48'1 0.6
2017-Mar-20 22:33N 48°36' W 122°49'1 0.5
2017-Mar-20 21:33N 48°36' W 122°49'2 2.1
2017-Mar-20 20:33N 48°34' W 122°50'3 3.1
2017-Mar-20 19:33N 48°31' W 122°50'4 4.3
2017-Mar-20 18:33N 48°35' W 122°46'7 7.1
2017-Mar-20 17:33N 48°31' W 122°36'1 0.9
2017-Mar-20 16:33N 48°32' W 122°38'1 0.9
2017-Mar-20 15:30N 48°31' W 122°36'0 0.0
2017-Mar-20 14:30N 48°31' W 122°36'0 0.0
2017-Mar-20 13:30N 48°31' W 122°36'0 0.0
2017-Mar-20 10:30N 48°31' W 122°36'0 0.0
2017-Mar-20 09:30N 48°31' W 122°36'0 0.0
2017-Mar-20 08:30N 48°31' W 122°36'0 0.0
2017-Mar-20 07:30N 48°31' W 122°36'0 0.0
2017-Mar-20 06:30N 48°31' W 122°36'0 0.0
2017-Mar-20 05:24N 48°31' W 122°36'0 0.0
2017-Mar-20 04:30N 48°31' W 122°36'0 0.0
2017-Mar-20 03:30N 48°31' W 122°36'0 0.0
2017-Mar-20 02:30N 48°31' W 122°36'0 0.0
2017-Mar-20 01:30N 48°31' W 122°36'0 0.0
2017-Mar-20 00:30N 48°31' W 122°36'0 0.0
2017-Mar-19 23:30N 48°31' W 122°36'0 0.0
2017-Mar-19 22:30N 48°31' W 122°36'0 0.0
2017-Mar-19 21:30N 48°31' W 122°36'0 0.0
2017-Mar-19 20:30N 48°31' W 122°36'0 0.0
2017-Mar-19 19:30N 48°31' W 122°36'0 0.0
2017-Mar-19 18:30N 48°31' W 122°36'0 0.0
2017-Mar-19 17:24N 48°31' W 122°36'0 0.0
2017-Mar-19 09:30N 48°31' W 122°36'0 0.0
2017-Mar-19 08:18N 48°31' W 122°36'0 0.0
2017-Mar-19 07:24N 48°31' W 122°36'0 0.0
2017-Mar-19 06:30N 48°31' W 122°36'0 0.0
2017-Mar-19 05:33N 48°31' W 122°36'0 0.0
2017-Mar-19 04:30N 48°31' W 122°36'0 0.0
2017-Mar-19 03:33N 48°31' W 122°36'0 0.0
2017-Mar-19 02:30N 48°31' W 122°36'0 0.0
2017-Mar-19 01:33N 48°31' W 122°36'4 4.1
2017-Mar-19 00:33N 48°29' W 122°32'7 6.6
2017-Mar-18 23:33N 48°22' W 122°32'6 5.8
2017-Mar-18 22:33N 48°16' W 122°31'7 7.2
2017-Mar-18 21:33N 48°09' W 122°31'7 6.9
2017-Mar-18 20:33N 48°04' W 122°25'8 7.6
2017-Mar-18 19:34N 47°57' W 122°21'2 1.9
2017-Mar-18 18:33N 47°55' W 122°23'6 6.2
2017-Mar-18 17:33N 48°01' W 122°22'8 7.8
2017-Mar-18 16:32N 48°06' W 122°32'0 0.0
2017-Mar-18 15:34N 48°06' W 122°32'10 9.2
2017-Mar-18 14:31N 48°15' W 122°32'10 7.9
2017-Mar-18 13:16N 48°25' W 122°36'5 7.0
2017-Mar-18 12:33N 48°28' W 122°41'4 3.9
2017-Mar-18 11:29N 48°31' W 122°36'0 0.0
2017-Mar-18 10:28N 48°31' W 122°36'0 0.0
2017-Mar-18 09:28N 48°31' W 122°36'0 0.0
2017-Mar-18 08:28N 48°31' W 122°36'0 0.0
2017-Mar-18 07:28N 48°31' W 122°36'0 0.0
2017-Mar-18 06:28N 48°31' W 122°36'0 0.0
2017-Mar-18 05:28N 48°31' W 122°36'0 0.0
2017-Mar-18 04:28N 48°31' W 122°36'0 0.0
2017-Mar-18 03:22N 48°31' W 122°36'0 0.0
2017-Mar-18 02:28N 48°31' W 122°36'0 0.0
2017-Mar-18 01:28N 48°31' W 122°36'0 0.0
2017-Mar-18 00:22N 48°31' W 122°36'0 0.0
2017-Mar-17 23:28N 48°31' W 122°36'0 0.0
2017-Mar-17 22:28N 48°31' W 122°36'0 0.0
2017-Mar-17 21:22N 48°31' W 122°36'0 0.0
2017-Mar-17 20:04N 48°31' W 122°36'0 0.0
2017-Mar-17 19:28N 48°31' W 122°36'0 0.0
2017-Mar-17 18:28N 48°31' W 122°36'1 0.9
2017-Mar-17 17:33N 48°32' W 122°38'1 0.9
2017-Mar-17 16:33N 48°31' W 122°36'0 0.0
2017-Mar-17 15:33N 48°31' W 122°36'0 0.0
2017-Mar-17 14:33N 48°31' W 122°36'0 0.0
2017-Mar-17 13:29N 48°31' W 122°36'0 0.0
2017-Mar-17 12:29N 48°31' W 122°36'0 0.0
2017-Mar-17 11:23N 48°31' W 122°36'0 0.0
2017-Mar-17 10:29N 48°31' W 122°36'0 0.0
2017-Mar-17 09:29N 48°31' W 122°36'0 0.0
2017-Mar-17 08:17N 48°31' W 122°36'0 0.0
2017-Mar-17 07:29N 48°31' W 122°36'0 0.0
2017-Mar-17 06:29N 48°31' W 122°36'0 0.0
2017-Mar-17 05:29N 48°31' W 122°36'0 0.0
2017-Mar-17 04:23N 48°31' W 122°36'0 0.0
2017-Mar-17 03:29N 48°31' W 122°36'0 0.0
2017-Mar-17 02:29N 48°31' W 122°36'0 0.0
2017-Mar-17 01:29N 48°31' W 122°36'0 0.0
2017-Mar-17 00:29N 48°31' W 122°36'0 0.0
2017-Mar-16 23:29N 48°31' W 122°36'0 0.0
2017-Mar-16 22:29N 48°31' W 122°36'0 0.0
2017-Mar-16 21:29N 48°31' W 122°36'0 0.0
2017-Mar-16 20:29N 48°31' W 122°36'0 0.0
2017-Mar-16 19:29N 48°31' W 122°36'0 0.0
2017-Mar-16 18:29N 48°31' W 122°36'0 0.0
2017-Mar-16 17:29N 48°31' W 122°36'0 0.0
2017-Mar-16 16:29N 48°31' W 122°36'0 0.0
2017-Mar-16 15:29N 48°31' W 122°36'0 0.0
2017-Mar-16 14:29N 48°31' W 122°36'0 0.0
2017-Mar-16 13:29N 48°31' W 122°36'0 0.0
2017-Mar-16 12:29N 48°31' W 122°36'0 0.0
2017-Mar-16 11:29N 48°31' W 122°36'0 0.0
2017-Mar-16 10:29N 48°31' W 122°36'0 0.0
2017-Mar-16 09:32N 48°31' W 122°36'0 0.0
2017-Mar-16 08:29N 48°31' W 122°36'0 0.0
2017-Mar-16 07:29N 48°31' W 122°36'0 0.0
2017-Mar-16 06:29N 48°31' W 122°36'0 0.0
2017-Mar-16 05:29N 48°31' W 122°36'0 0.0
2017-Mar-16 04:29N 48°31' W 122°36'0 0.0
2017-Mar-16 03:29N 48°31' W 122°36'0 0.0
2017-Mar-16 02:29N 48°31' W 122°36'0 0.0
2017-Mar-16 01:29N 48°31' W 122°36'0 0.0
2017-Mar-16 00:29N 48°31' W 122°36'0 0.0
2017-Mar-15 23:29N 48°31' W 122°36'0 0.0
2017-Mar-15 22:29N 48°31' W 122°36'0 0.0
2017-Mar-15 21:33N 48°31' W 122°36'0 0.0
2017-Mar-15 20:33N 48°31' W 122°36'5 5.5
2017-Mar-15 19:33N 48°32' W 122°45'6 6.1
2017-Mar-15 18:33N 48°33' W 122°53'0 0.0
2017-Mar-15 17:33N 48°33' W 122°53'4 3.9
2017-Mar-15 16:33N 48°32' W 122°48'8 7.8
2017-Mar-15 15:34N 48°31' W 122°36'0 0.0
2017-Mar-15 14:31N 48°31' W 122°36'0 0.0
2017-Mar-15 13:31N 48°31' W 122°36'0 0.0
2017-Mar-15 12:31N 48°31' W 122°36'0 0.0
2017-Mar-15 11:31N 48°31' W 122°36'0 0.0
2017-Mar-15 10:31N 48°31' W 122°36'0 0.0
2017-Mar-15 09:31N 48°31' W 122°36'0 0.0
2017-Mar-15 08:31N 48°31' W 122°36'0 0.0
2017-Mar-15 07:25N 48°31' W 122°36'0 0.0
2017-Mar-15 06:31N 48°31' W 122°36'0 0.0
2017-Mar-15 05:31N 48°31' W 122°36'0 0.0
2017-Mar-15 04:25N 48°31' W 122°36'0 0.0
2017-Mar-15 03:31N 48°31' W 122°36'0 0.0
2017-Mar-15 02:31N 48°31' W 122°36'0 0.0
2017-Mar-15 01:31N 48°31' W 122°36'0 0.0
2017-Mar-15 00:31N 48°31' W 122°36'0 0.0
2017-Mar-14 23:31N 48°31' W 122°36'0 0.0
2017-Mar-14 22:31N 48°31' W 122°36'4 3.8
2017-Mar-14 21:33N 48°33' W 122°41'0 0.0
2017-Mar-14 20:33N 48°33' W 122°41'3 3.4
2017-Mar-14 19:33N 48°31' W 122°37'0 0.2
2017-Mar-14 18:33N 48°31' W 122°37'0 0.3
2017-Mar-14 17:33N 48°31' W 122°36'1 0.6
2017-Mar-14 16:33N 48°31' W 122°37'1 0.6
2017-Mar-14 15:33N 48°31' W 122°36'1 0.6
2017-Mar-14 14:33N 48°32' W 122°37'1 0.6
2017-Mar-14 13:32N 48°31' W 122°36'0 0.0
2017-Mar-14 12:32N 48°31' W 122°36'0 0.0
2017-Mar-14 11:32N 48°31' W 122°36'0 0.0
2017-Mar-14 10:32N 48°31' W 122°36'0 0.0
2017-Mar-14 09:32N 48°31' W 122°36'0 0.0
2017-Mar-14 08:20N 48°31' W 122°36'0 0.0
2017-Mar-14 07:32N 48°31' W 122°36'0 0.0
2017-Mar-14 06:32N 48°31' W 122°36'0 0.0
2017-Mar-14 05:32N 48°31' W 122°36'0 0.0
2017-Mar-14 04:32N 48°31' W 122°36'0 0.0
2017-Mar-14 03:32N 48°31' W 122°36'0 0.0
2017-Mar-14 02:32N 48°31' W 122°36'0 0.0
2017-Mar-14 01:32N 48°31' W 122°36'0 0.0
2017-Mar-14 00:26N 48°31' W 122°36'0 0.0
2017-Mar-13 23:32N 48°31' W 122°36'0 0.0
2017-Mar-13 22:32N 48°31' W 122°36'0 0.0
2017-Mar-13 21:32N 48°31' W 122°36'0 0.0
2017-Mar-13 20:32N 48°31' W 122°36'0 0.0
2017-Mar-13 19:32N 48°31' W 122°36'0 0.0
2017-Mar-13 18:26N 48°31' W 122°36'0 0.0
2017-Mar-13 17:32N 48°31' W 122°36'0 0.0
2017-Mar-13 16:26N 48°31' W 122°36'0 0.0
2017-Mar-13 15:32N 48°31' W 122°36'0 0.0
2017-Mar-13 14:32N 48°31' W 122°36'0 0.0
2017-Mar-13 13:32N 48°31' W 122°36'0 0.0
2017-Mar-13 12:26N 48°31' W 122°36'0 0.0
2017-Mar-13 11:32N 48°31' W 122°36'0 0.0
2017-Mar-13 10:32N 48°31' W 122°36'0 0.0
2017-Mar-13 09:32N 48°31' W 122°36'0 0.0
2017-Mar-13 08:32N 48°31' W 122°36'0 0.0
2017-Mar-13 07:32N 48°31' W 122°36'0 0.0
2017-Mar-13 06:26N 48°31' W 122°36'0 0.0
2017-Mar-13 05:32N 48°31' W 122°36'0 0.0
2017-Mar-13 04:32N 48°31' W 122°36'0 0.0
2017-Mar-13 03:32N 48°31' W 122°36'0 0.0
2017-Mar-13 02:32N 48°31' W 122°36'0 0.0
2017-Mar-13 01:32N 48°31' W 122°36'0 0.0
2017-Mar-13 00:32N 48°31' W 122°36'0 0.0
2017-Mar-12 23:32N 48°31' W 122°36'0 0.0
2017-Mar-12 22:20N 48°31' W 122°36'0 0.0
2017-Mar-12 21:26N 48°31' W 122°36'0 0.0
2017-Mar-12 20:32N 48°31' W 122°36'  
Track history (hours):
 
Tides and Currents Weather Stations Pressure Air Temp Water Temp Dewpoint Dewpoint Depression Visibility Wind Speed Wind Dir Waves Ship Positions

San Juan Enterprise

Owner: SAN JUAN MARINE FREIGHT CO LLC, ANACORTES, WA. More information available from US FCC via Universal Licensing System and Coast Guard Vessel Documentation Center.

Last reported at 2017-Mar-22 20:30 UTC. Time now 2017-Mar-23 04:16 UTC.
Position N 48°31' W 122°36'.

Length 30 m.

MMSI: 367313160.

Date/timePositionNaut miles runAvg speedWind from/ knotsBaromVisibWave heightAir tempDewpointWater temp
2017-Mar-22 20:30N 48°31' W 122°36'7 7.1
2017-Mar-22 19:33N 48°37' W 122°43'4 4.3
2017-Mar-22 18:33N 48°36' W 122°49'0 0.4
2017-Mar-22 17:33N 48°36' W 122°49'2 1.9
2017-Mar-22 16:33N 48°36' W 122°46'7 6.7
2017-Mar-22 15:33N 48°31' W 122°38'2 0.1
2017-Mar-21 17:33N 48°33' W 122°40'3 2.8
2017-Mar-21 16:33N 48°31' W 122°36'0 0.0
2017-Mar-21 15:31N 48°31' W 122°36'0 0.0
2017-Mar-21 14:31N 48°31' W 122°36'0 0.0
2017-Mar-21 13:31N 48°31' W 122°36'0 0.0
2017-Mar-21 12:31N 48°31' W 122°36'0 0.0
2017-Mar-21 11:31N 48°31' W 122°36'0 0.0
2017-Mar-21 10:31N 48°31' W 122°36'0 0.0
2017-Mar-21 09:31N 48°31' W 122°36'0 0.0
2017-Mar-21 08:31N 48°31' W 122°36'0 0.0
2017-Mar-21 07:31N 48°31' W 122°36'0 0.0
2017-Mar-21 06:31N 48°31' W 122°36'0 0.0
2017-Mar-21 05:25N 48°31' W 122°36'0 0.0
2017-Mar-21 04:31N 48°31' W 122°36'0 0.0
2017-Mar-21 03:25N 48°31' W 122°36'0 0.0
2017-Mar-21 02:31N 48°31' W 122°36'0 0.0
2017-Mar-21 01:25N 48°31' W 122°36'0 0.4
2017-Mar-21 00:33N 48°31' W 122°37'9 8.9
2017-Mar-20 23:33N 48°36' W 122°48'1 0.6
2017-Mar-20 22:33N 48°36' W 122°49'1 0.5
2017-Mar-20 21:33N 48°36' W 122°49'2 2.1
2017-Mar-20 20:33N 48°34' W 122°50'3 3.1
2017-Mar-20 19:33N 48°31' W 122°50'4 4.3
2017-Mar-20 18:33N 48°35' W 122°46'7 7.1
2017-Mar-20 17:33N 48°31' W 122°36'1 0.9
2017-Mar-20 16:33N 48°32' W 122°38'1 0.9
2017-Mar-20 15:30N 48°31' W 122°36'0 0.0
2017-Mar-20 14:30N 48°31' W 122°36'0 0.0
2017-Mar-20 13:30N 48°31' W 122°36'0 0.0
2017-Mar-20 10:30N 48°31' W 122°36'0 0.0
2017-Mar-20 09:30N 48°31' W 122°36'0 0.0
2017-Mar-20 08:30N 48°31' W 122°36'0 0.0
2017-Mar-20 07:30N 48°31' W 122°36'0 0.0
2017-Mar-20 06:30N 48°31' W 122°36'0 0.0
2017-Mar-20 05:24N 48°31' W 122°36'0 0.0
2017-Mar-20 04:30N 48°31' W 122°36'0 0.0
2017-Mar-20 03:30N 48°31' W 122°36'0 0.0
2017-Mar-20 02:30N 48°31' W 122°36'0 0.0
2017-Mar-20 01:30N 48°31' W 122°36'0 0.0
2017-Mar-20 00:30N 48°31' W 122°36'0 0.0
2017-Mar-19 23:30N 48°31' W 122°36'0 0.0
2017-Mar-19 22:30N 48°31' W 122°36'0 0.0
2017-Mar-19 21:30N 48°31' W 122°36'0 0.0
2017-Mar-19 20:30N 48°31' W 122°36'0 0.0
2017-Mar-19 19:30N 48°31' W 122°36'0 0.0
2017-Mar-19 18:30N 48°31' W 122°36'0 0.0
2017-Mar-19 17:24N 48°31' W 122°36'0 0.0
2017-Mar-19 09:30N 48°31' W 122°36'0 0.0
2017-Mar-19 08:18N 48°31' W 122°36'0 0.0
2017-Mar-19 07:24N 48°31' W 122°36'0 0.0
2017-Mar-19 06:30N 48°31' W 122°36'0 0.0
2017-Mar-19 05:33N 48°31' W 122°36'0 0.0
2017-Mar-19 04:30N 48°31' W 122°36'0 0.0
2017-Mar-19 03:33N 48°31' W 122°36'0 0.0
2017-Mar-19 02:30N 48°31' W 122°36'0 0.0
2017-Mar-19 01:33N 48°31' W 122°36'4 4.1
2017-Mar-19 00:33N 48°29' W 122°32'7 6.6
2017-Mar-18 23:33N 48°22' W 122°32'6 5.8
2017-Mar-18 22:33N 48°16' W 122°31'7 7.2
2017-Mar-18 21:33N 48°09' W 122°31'7 6.9
2017-Mar-18 20:33N 48°04' W 122°25'8 7.6
2017-Mar-18 19:34N 47°57' W 122°21'2 1.9
2017-Mar-18 18:33N 47°55' W 122°23'6 6.2
2017-Mar-18 17:33N 48°01' W 122°22'8 7.8
2017-Mar-18 16:32N 48°06' W 122°32'0 0.0
2017-Mar-18 15:34N 48°06' W 122°32'10 9.2
2017-Mar-18 14:31N 48°15' W 122°32'10 7.9
2017-Mar-18 13:16N 48°25' W 122°36'5 7.0
2017-Mar-18 12:33N 48°28' W 122°41'4 3.9
2017-Mar-18 11:29N 48°31' W 122°36'0 0.0
2017-Mar-18 10:28N 48°31' W 122°36'0 0.0
2017-Mar-18 09:28N 48°31' W 122°36'0 0.0
2017-Mar-18 08:28N 48°31' W 122°36'0 0.0
2017-Mar-18 07:28N 48°31' W 122°36'0 0.0
2017-Mar-18 06:28N 48°31' W 122°36'0 0.0
2017-Mar-18 05:28N 48°31' W 122°36'0 0.0
2017-Mar-18 04:28N 48°31' W 122°36'0 0.0
2017-Mar-18 03:22N 48°31' W 122°36'0 0.0
2017-Mar-18 02:28N 48°31' W 122°36'0 0.0
2017-Mar-18 01:28N 48°31' W 122°36'0 0.0
2017-Mar-18 00:22N 48°31' W 122°36'0 0.0
2017-Mar-17 23:28N 48°31' W 122°36'0 0.0
2017-Mar-17 22:28N 48°31' W 122°36'0 0.0
2017-Mar-17 21:22N 48°31' W 122°36'0 0.0
2017-Mar-17 20:04N 48°31' W 122°36'0 0.0
2017-Mar-17 19:28N 48°31' W 122°36'0 0.0
2017-Mar-17 18:28N 48°31' W 122°36'1 0.9
2017-Mar-17 17:33N 48°32' W 122°38'1 0.9
2017-Mar-17 16:33N 48°31' W 122°36'0 0.0
2017-Mar-17 15:33N 48°31' W 122°36'0 0.0
2017-Mar-17 14:33N 48°31' W 122°36'0 0.0
2017-Mar-17 13:29N 48°31' W 122°36'0 0.0
2017-Mar-17 12:29N 48°31' W 122°36'0 0.0
2017-Mar-17 11:23N 48°31' W 122°36'0 0.0
2017-Mar-17 10:29N 48°31' W 122°36'0 0.0
2017-Mar-17 09:29N 48°31' W 122°36'0 0.0
2017-Mar-17 08:17N 48°31' W 122°36'0 0.0
2017-Mar-17 07:29N 48°31' W 122°36'0 0.0
2017-Mar-17 06:29N 48°31' W 122°36'0 0.0
2017-Mar-17 05:29N 48°31' W 122°36'0 0.0
2017-Mar-17 04:23N 48°31' W 122°36'0 0.0
2017-Mar-17 03:29N 48°31' W 122°36'0 0.0
2017-Mar-17 02:29N 48°31' W 122°36'0 0.0
2017-Mar-17 01:29N 48°31' W 122°36'0 0.0
2017-Mar-17 00:29N 48°31' W 122°36'0 0.0
2017-Mar-16 23:29N 48°31' W 122°36'0 0.0
2017-Mar-16 22:29N 48°31' W 122°36'0 0.0
2017-Mar-16 21:29N 48°31' W 122°36'0 0.0
2017-Mar-16 20:29N 48°31' W 122°36'0 0.0
2017-Mar-16 19:29N 48°31' W 122°36'0 0.0
2017-Mar-16 18:29N 48°31' W 122°36'0 0.0
2017-Mar-16 17:29N 48°31' W 122°36'0 0.0
2017-Mar-16 16:29N 48°31' W 122°36'0 0.0
2017-Mar-16 15:29N 48°31' W 122°36'0 0.0
2017-Mar-16 14:29N 48°31' W 122°36'0 0.0
2017-Mar-16 13:29N 48°31' W 122°36'0 0.0
2017-Mar-16 12:29N 48°31' W 122°36'0 0.0
2017-Mar-16 11:29N 48°31' W 122°36'0 0.0
2017-Mar-16 10:29N 48°31' W 122°36'0 0.0
2017-Mar-16 09:32N 48°31' W 122°36'0 0.0
2017-Mar-16 08:29N 48°31' W 122°36'0 0.0
2017-Mar-16 07:29N 48°31' W 122°36'0 0.0
2017-Mar-16 06:29N 48°31' W 122°36'0 0.0
2017-Mar-16 05:29N 48°31' W 122°36'0 0.0
2017-Mar-16 04:29N 48°31' W 122°36'0 0.0
2017-Mar-16 03:29N 48°31' W 122°36'0 0.0
2017-Mar-16 02:29N 48°31' W 122°36'0 0.0
2017-Mar-16 01:29N 48°31' W 122°36'0 0.0
2017-Mar-16 00:29N 48°31' W 122°36'0 0.0
2017-Mar-15 23:29N 48°31' W 122°36'0 0.0
2017-Mar-15 22:29N 48°31' W 122°36'0 0.0
2017-Mar-15 21:33N 48°31' W 122°36'0 0.0
2017-Mar-15 20:33N 48°31' W 122°36'5 5.5
2017-Mar-15 19:33N 48°32' W 122°45'6 6.1
2017-Mar-15 18:33N 48°33' W 122°53'0 0.0
2017-Mar-15 17:33N 48°33' W 122°53'4 3.9
2017-Mar-15 16:33N 48°32' W 122°48'8 7.8
2017-Mar-15 15:34N 48°31' W 122°36'0 0.0
2017-Mar-15 14:31N 48°31' W 122°36'0 0.0
2017-Mar-15 13:31N 48°31' W 122°36'0 0.0
2017-Mar-15 12:31N 48°31' W 122°36'0 0.0
2017-Mar-15 11:31N 48°31' W 122°36'0 0.0
2017-Mar-15 10:31N 48°31' W 122°36'0 0.0
2017-Mar-15 09:31N 48°31' W 122°36'0 0.0
2017-Mar-15 08:31N 48°31' W 122°36'0 0.0
2017-Mar-15 07:25N 48°31' W 122°36'0 0.0
2017-Mar-15 06:31N 48°31' W 122°36'0 0.0
2017-Mar-15 05:31N 48°31' W 122°36'0 0.0
2017-Mar-15 04:25N 48°31' W 122°36'0 0.0
2017-Mar-15 03:31N 48°31' W 122°36'0 0.0
2017-Mar-15 02:31N 48°31' W 122°36'0 0.0
2017-Mar-15 01:31N 48°31' W 122°36'0 0.0
2017-Mar-15 00:31N 48°31' W 122°36'0 0.0
2017-Mar-14 23:31N 48°31' W 122°36'0 0.0
2017-Mar-14 22:31N 48°31' W 122°36'4 3.8
2017-Mar-14 21:33N 48°33' W 122°41'0 0.0
2017-Mar-14 20:33N 48°33' W 122°41'3 3.4
2017-Mar-14 19:33N 48°31' W 122°37'0 0.2
2017-Mar-14 18:33N 48°31' W 122°37'0 0.3
2017-Mar-14 17:33N 48°31' W 122°36'1 0.6
2017-Mar-14 16:33N 48°31' W 122°37'1 0.6
2017-Mar-14 15:33N 48°31' W 122°36'1 0.6
2017-Mar-14 14:33N 48°32' W 122°37'1 0.6
2017-Mar-14 13:32N 48°31' W 122°36'0 0.0
2017-Mar-14 12:32N 48°31' W 122°36'0 0.0
2017-Mar-14 11:32N 48°31' W 122°36'0 0.0
2017-Mar-14 10:32N 48°31' W 122°36'0 0.0
2017-Mar-14 09:32N 48°31' W 122°36'0 0.0
2017-Mar-14 08:20N 48°31' W 122°36'0 0.0
2017-Mar-14 07:32N 48°31' W 122°36'0 0.0
2017-Mar-14 06:32N 48°31' W 122°36'0 0.0
2017-Mar-14 05:32N 48°31' W 122°36'0 0.0
2017-Mar-14 04:32N 48°31' W 122°36'0 0.0
2017-Mar-14 03:32N 48°31' W 122°36'0 0.0
2017-Mar-14 02:32N 48°31' W 122°36'0 0.0
2017-Mar-14 01:32N 48°31' W 122°36'0 0.0
2017-Mar-14 00:26N 48°31' W 122°36'0 0.0
2017-Mar-13 23:32N 48°31' W 122°36'0 0.0
2017-Mar-13 22:32N 48°31' W 122°36'0 0.0
2017-Mar-13 21:32N 48°31' W 122°36'0 0.0
2017-Mar-13 20:32N 48°31' W 122°36'0 0.0
2017-Mar-13 19:32N 48°31' W 122°36'0 0.0
2017-Mar-13 18:26N 48°31' W 122°36'0 0.0
2017-Mar-13 17:32N 48°31' W 122°36'0 0.0
2017-Mar-13 16:26N 48°31' W 122°36'0 0.0
2017-Mar-13 15:32N 48°31' W 122°36'0 0.0
2017-Mar-13 14:32N 48°31' W 122°36'0 0.0
2017-Mar-13 13:32N 48°31' W 122°36'0 0.0
2017-Mar-13 12:26N 48°31' W 122°36'0 0.0
2017-Mar-13 11:32N 48°31' W 122°36'0 0.0
2017-Mar-13 10:32N 48°31' W 122°36'0 0.0
2017-Mar-13 09:32N 48°31' W 122°36'0 0.0
2017-Mar-13 08:32N 48°31' W 122°36'0 0.0
2017-Mar-13 07:32N 48°31' W 122°36'0 0.0
2017-Mar-13 06:26N 48°31' W 122°36'0 0.0
2017-Mar-13 05:32N 48°31' W 122°36'0 0.0
2017-Mar-13 04:32N 48°31' W 122°36'0 0.0
2017-Mar-13 03:32N 48°31' W 122°36'0 0.0
2017-Mar-13 02:32N 48°31' W 122°36'0 0.0
2017-Mar-13 01:32N 48°31' W 122°36'0 0.0
2017-Mar-13 00:32N 48°31' W 122°36'0 0.0
2017-Mar-12 23:32N 48°31' W 122°36'0 0.0
2017-Mar-12 22:20N 48°31' W 122°36'0 0.0
2017-Mar-12 21:26N 48°31' W 122°36'0 0.0
2017-Mar-12 20:32N 48°31' W 122°36'  

Dump ship's entire track history